sensor_id;sensor_type;location;lat;lon;timestamp;pressure;altitude;pressure_sealevel;temperature;humidity
56504;BME280;48812;51.606;-0.114;2023-03-30T00:00:38;99527.94;;;17.27;63.60
56504;BME280;48812;51.606;-0.114;2023-03-30T00:03:11;99534.25;;;17.26;63.61
56504;BME280;48812;51.606;-0.114;2023-03-30T00:05:44;99525.31;;;17.25;63.19
56504;BME280;48812;51.606;-0.114;2023-03-30T00:08:17;99529.91;;;17.23;63.56
56504;BME280;48812;51.606;-0.114;2023-03-30T00:10:50;99526.41;;;17.23;63.05
56504;BME280;48812;51.606;-0.114;2023-03-30T00:13:24;99523.81;;;17.21;63.21
56504;BME280;48812;51.606;-0.114;2023-03-30T00:15:57;99522.97;;;17.21;63.08
56504;BME280;48812;51.606;-0.114;2023-03-30T00:18:29;99527.44;;;17.20;63.50
56504;BME280;48812;51.606;-0.114;2023-03-30T00:21:02;99521.25;;;17.20;62.72
56504;BME280;48812;51.606;-0.114;2023-03-30T00:23:36;99529.38;;;17.18;63.18
56504;BME280;48812;51.606;-0.114;2023-03-30T00:26:09;99515.16;;;17.18;62.85
56504;BME280;48812;51.606;-0.114;2023-03-30T00:28:41;99516.94;;;17.17;63.32
56504;BME280;48812;51.606;-0.114;2023-03-30T00:31:15;99502.75;;;17.17;62.72
56504;BME280;48812;51.606;-0.114;2023-03-30T00:33:47;99493.00;;;17.15;62.92
56504;BME280;48812;51.606;-0.114;2023-03-30T00:36:21;99497.50;;;17.15;63.23
56504;BME280;48812;51.606;-0.114;2023-03-30T00:38:53;99488.66;;;17.14;63.09
56504;BME280;48812;51.606;-0.114;2023-03-30T00:41:26;99488.75;;;17.13;62.86
56504;BME280;48812;51.606;-0.114;2023-03-30T00:44:05;99496.03;;;17.11;62.96
56504;BME280;48812;51.606;-0.114;2023-03-30T00:46:37;99506.69;;;17.11;62.77
56504;BME280;48812;51.606;-0.114;2023-03-30T00:49:10;99501.34;;;17.11;62.63
56504;BME280;48812;51.606;-0.114;2023-03-30T00:51:43;99489.78;;;17.10;62.56
56504;BME280;48812;51.606;-0.114;2023-03-30T00:54:18;99481.88;;;17.09;62.98
56504;BME280;48812;51.606;-0.114;2023-03-30T00:56:55;99477.41;;;17.09;62.49
56504;BME280;48812;51.606;-0.114;2023-03-30T00:59:27;99465.84;;;17.09;62.65
56504;BME280;48812;51.606;-0.114;2023-03-30T01:02:00;99484.66;;;17.07;62.77
56504;BME280;48812;51.606;-0.114;2023-03-30T01:04:33;99489.16;;;17.07;62.85
56504;BME280;48812;51.606;-0.114;2023-03-30T01:07:08;99482.09;;;17.06;62.59
56504;BME280;48812;51.606;-0.114;2023-03-30T01:09:44;99478.47;;;17.07;62.81
56504;BME280;48812;51.606;-0.114;2023-03-30T01:12:17;99478.66;;;17.04;62.31
56504;BME280;48812;51.606;-0.114;2023-03-30T01:14:50;99474.19;;;17.04;62.20
56504;BME280;48812;51.606;-0.114;2023-03-30T01:17:58;99476.97;;;17.03;62.44
56504;BME280;48812;51.606;-0.114;2023-03-30T01:26:38;99473.53;;;17.01;63.08
56504;BME280;48812;51.606;-0.114;2023-03-30T01:29:24;99471.81;;;17.00;62.75
56504;BME280;48812;51.606;-0.114;2023-03-30T01:34:59;99466.59;;;16.98;62.33
56504;BME280;48812;51.606;-0.114;2023-03-30T01:43:46;99480.97;;;16.95;62.17
56504;BME280;48812;51.606;-0.114;2023-03-30T01:46:26;99476.63;;;16.94;62.32
56504;BME280;48812;51.606;-0.114;2023-03-30T01:54:43;99488.25;;;16.93;62.15
56504;BME280;48812;51.606;-0.114;2023-03-30T01:57:22;99502.53;;;16.92;62.58
56504;BME280;48812;51.606;-0.114;2023-03-30T02:00:09;99491.84;;;16.92;62.13
56504;BME280;48812;51.606;-0.114;2023-03-30T02:02:51;99498.16;;;16.91;62.24
56504;BME280;48812;51.606;-0.114;2023-03-30T02:05:29;99517.81;;;16.90;62.41
56504;BME280;48812;51.606;-0.114;2023-03-30T02:08:07;99505.31;;;16.91;61.97
56504;BME280;48812;51.606;-0.114;2023-03-30T02:10:43;99515.13;;;16.90;61.81
56504;BME280;48812;51.606;-0.114;2023-03-30T02:13:18;99511.63;;;16.90;62.36
56504;BME280;48812;51.606;-0.114;2023-03-30T02:16:10;99511.81;;;16.87;62.45
56504;BME280;48812;51.606;-0.114;2023-03-30T02:18:49;99517.06;;;16.88;62.32
56504;BME280;48812;51.606;-0.114;2023-03-30T02:21:21;99508.28;;;16.86;61.98
56504;BME280;48812;51.606;-0.114;2023-03-30T02:23:55;99524.31;;;16.86;61.63
56504;BME280;48812;51.606;-0.114;2023-03-30T02:26:29;99520.75;;;16.86;62.16
56504;BME280;48812;51.606;-0.114;2023-03-30T02:29:03;99518.09;;;16.86;61.97
56504;BME280;48812;51.606;-0.114;2023-03-30T02:31:36;99522.59;;;16.85;61.83
56504;BME280;48812;51.606;-0.114;2023-03-30T02:45:47;99525.63;;;16.79;61.89
56504;BME280;48812;51.606;-0.114;2023-03-30T02:51:11;99525.53;;;16.81;61.86
56504;BME280;48812;51.606;-0.114;2023-03-30T02:57:39;99522.31;;;16.75;61.85
56504;BME280;48812;51.606;-0.114;2023-03-30T03:00:53;99523.16;;;16.76;61.45
56504;BME280;48812;51.606;-0.114;2023-03-30T03:03:41;99525.09;;;16.74;61.35
56504;BME280;48812;51.606;-0.114;2023-03-30T03:06:15;99524.13;;;16.75;61.50
56504;BME280;48812;51.606;-0.114;2023-03-30T03:08:57;99522.69;;;16.69;62.00
56504;BME280;48812;51.606;-0.114;2023-03-30T03:11:32;99531.50;;;16.71;62.18
56504;BME280;48812;51.606;-0.114;2023-03-30T03:14:06;99539.38;;;16.73;61.65
56504;BME280;48812;51.606;-0.114;2023-03-30T03:16:39;99543.97;;;16.71;61.70
56504;BME280;48812;51.606;-0.114;2023-03-30T03:19:18;99548.44;;;16.70;62.07
56504;BME280;48812;51.606;-0.114;2023-03-30T03:21:53;99551.97;;;16.71;61.58
56504;BME280;48812;51.606;-0.114;2023-03-30T03:24:25;99547.59;;;16.70;61.64
56504;BME280;48812;51.606;-0.114;2023-03-30T03:27:07;99553.88;;;16.69;61.84
56504;BME280;48812;51.606;-0.114;2023-03-30T03:29:56;99561.88;;;16.69;61.30
56504;BME280;48812;51.606;-0.114;2023-03-30T03:32:29;99553.88;;;16.69;61.78
56504;BME280;48812;51.606;-0.114;2023-03-30T03:35:02;99560.16;;;16.68;61.60
56504;BME280;48812;51.606;-0.114;2023-03-30T03:37:35;99552.16;;;16.68;62.01
56504;BME280;48812;51.606;-0.114;2023-03-30T03:40:08;99550.47;;;16.67;61.60
56504;BME280;48812;51.606;-0.114;2023-03-30T03:42:43;99552.34;;;16.65;61.39
56504;BME280;48812;51.606;-0.114;2023-03-30T03:45:18;99551.41;;;16.66;61.36
56504;BME280;48812;51.606;-0.114;2023-03-30T03:48:02;99551.50;;;16.64;61.04
56504;BME280;48812;51.606;-0.114;2023-03-30T03:51:02;99547.00;;;16.65;61.69
56504;BME280;48812;51.606;-0.114;2023-03-30T03:53:38;99552.47;;;16.63;61.51
56504;BME280;48812;51.606;-0.114;2023-03-30T03:56:14;99547.22;;;16.62;61.71
56504;BME280;48812;51.606;-0.114;2023-03-30T03:58:47;99540.91;;;16.63;61.67
56504;BME280;48812;51.606;-0.114;2023-03-30T04:01:21;99549.09;;;16.59;61.13
56504;BME280;48812;51.606;-0.114;2023-03-30T04:03:53;99546.34;;;16.61;61.40
56504;BME280;48812;51.606;-0.114;2023-03-30T04:06:26;99545.50;;;16.61;61.45
56504;BME280;48812;51.606;-0.114;2023-03-30T04:08:58;99543.78;;;16.59;61.80
56504;BME280;48812;51.606;-0.114;2023-03-30T04:11:55;99548.25;;;16.59;61.14
56504;BME280;48812;51.606;-0.114;2023-03-30T04:14:43;99549.09;;;16.59;61.24
56504;BME280;48812;51.606;-0.114;2023-03-30T04:17:32;99547.41;;;16.58;60.89
56504;BME280;48812;51.606;-0.114;2023-03-30T04:20:21;99551.03;;;16.57;61.06
56504;BME280;48812;51.606;-0.114;2023-03-30T04:23:20;99557.31;;;16.56;61.02
56504;BME280;48812;51.606;-0.114;2023-03-30T04:26:11;99548.63;;;16.53;61.29
56504;BME280;48812;51.606;-0.114;2023-03-30T04:29:02;99547.59;;;16.55;61.19
56504;BME280;48812;51.606;-0.114;2023-03-30T04:31:42;99554.75;;;16.55;61.22
56504;BME280;48812;51.606;-0.114;2023-03-30T04:34:32;99554.84;;;16.53;61.55
56504;BME280;48812;51.606;-0.114;2023-03-30T04:37:23;99553.13;;;16.52;61.36
56504;BME280;48812;51.606;-0.114;2023-03-30T04:40:19;99563.81;;;16.52;61.44
56504;BME280;48812;51.606;-0.114;2023-03-30T04:43:03;99562.06;;;16.51;61.29
56504;BME280;48812;51.606;-0.114;2023-03-30T04:46:00;99570.06;;;16.51;60.77
56504;BME280;48812;51.606;-0.114;2023-03-30T04:48:44;99573.72;;;16.50;61.14
56504;BME280;48812;51.606;-0.114;2023-03-30T04:51:46;99575.50;;;16.50;61.24
56504;BME280;48812;51.606;-0.114;2023-03-30T04:54:54;99581.91;;;16.47;61.43
56504;BME280;48812;51.606;-0.114;2023-03-30T04:57:45;99588.94;;;16.48;61.42
56504;BME280;48812;51.606;-0.114;2023-03-30T05:00:37;99592.59;;;16.47;60.95
56504;BME280;48812;51.606;-0.114;2023-03-30T05:03:09;99589.16;;;16.45;61.07
56504;BME280;48812;51.606;-0.114;2023-03-30T05:05:57;99597.16;;;16.45;61.50
56504;BME280;48812;51.606;-0.114;2023-03-30T05:08:53;99601.63;;;16.45;61.17
56504;BME280;48812;51.606;-0.114;2023-03-30T05:11:47;99600.84;;;16.43;60.89
56504;BME280;48812;51.606;-0.114;2023-03-30T05:14:36;99616.88;;;16.43;60.89
56504;BME280;48812;51.606;-0.114;2023-03-30T05:17:31;99617.72;;;16.43;61.18
56504;BME280;48812;51.606;-0.114;2023-03-30T05:20:24;99624.13;;;16.40;61.08
56504;BME280;48812;51.606;-0.114;2023-03-30T05:23:17;99627.63;;;16.41;61.07
56504;BME280;48812;51.606;-0.114;2023-03-30T05:25:55;99636.56;;;16.40;61.24
56504;BME280;48812;51.606;-0.114;2023-03-30T05:28:53;99642.88;;;16.39;61.29
56504;BME280;48812;51.606;-0.114;2023-03-30T05:31:39;99649.16;;;16.38;61.19
56504;BME280;48812;51.606;-0.114;2023-03-30T05:34:27;99642.13;;;16.37;60.78
56504;BME280;48812;51.606;-0.114;2023-03-30T05:37:18;99657.16;;;16.38;60.87
56504;BME280;48812;51.606;-0.114;2023-03-30T05:40:26;99655.56;;;16.35;60.73
56504;BME280;48812;51.606;-0.114;2023-03-30T05:43:32;99664.41;;;16.36;60.90
56504;BME280;48812;51.606;-0.114;2023-03-30T05:46:26;99663.63;;;16.34;61.08
56504;BME280;48812;51.606;-0.114;2023-03-30T05:49:20;99668.00;;;16.35;61.00
56504;BME280;48812;51.606;-0.114;2023-03-30T05:51:57;99664.41;;;16.36;61.03
56504;BME280;48812;51.606;-0.114;2023-03-30T05:54:46;99675.81;;;16.38;62.01
56504;BME280;48812;51.606;-0.114;2023-03-30T05:57:31;99674.88;;;16.39;61.24
56504;BME280;48812;51.606;-0.114;2023-03-30T06:00:23;99671.16;;;16.41;60.93
56504;BME280;48812;51.606;-0.114;2023-03-30T06:03:07;99664.88;;;16.43;61.22
56504;BME280;48812;51.606;-0.114;2023-03-30T06:05:45;99675.28;;;16.47;61.20
56504;BME280;48812;51.606;-0.114;2023-03-30T06:08:19;99684.81;;;16.51;61.15
56504;BME280;48812;51.606;-0.114;2023-03-30T06:10:56;99681.19;;;16.52;61.44
56504;BME280;48812;51.606;-0.114;2023-03-30T06:13:31;99685.50;;;16.55;61.50
56504;BME280;48812;51.606;-0.114;2023-03-30T06:16:04;99686.19;;;16.58;61.70
56504;BME280;48812;51.606;-0.114;2023-03-30T06:18:38;99691.34;;;16.62;62.08
56504;BME280;48812;51.606;-0.114;2023-03-30T06:21:16;99685.78;;;16.65;61.61
56504;BME280;48812;51.606;-0.114;2023-03-30T06:23:58;99692.75;;;16.67;61.45
56504;BME280;48812;51.606;-0.114;2023-03-30T06:26:33;99689.06;;;16.70;61.74
56504;BME280;48812;51.606;-0.114;2023-03-30T06:29:06;99699.53;;;16.73;62.03
56504;BME280;48812;51.606;-0.114;2023-03-30T06:31:39;99696.66;;;16.76;62.10
56504;BME280;48812;51.606;-0.114;2023-03-30T06:34:38;99695.53;;;16.80;62.20
56504;BME280;48812;51.606;-0.114;2023-03-30T06:37:11;99701.53;;;16.84;62.02
56504;BME280;48812;51.606;-0.114;2023-03-30T06:39:44;99700.50;;;16.86;62.16
56504;BME280;48812;51.606;-0.114;2023-03-30T06:42:16;99699.44;;;16.89;62.13
56504;BME280;48812;51.606;-0.114;2023-03-30T06:45:05;99703.75;;;16.91;62.27
56504;BME280;48812;51.606;-0.114;2023-03-30T06:47:39;99710.59;;;16.95;62.12
56504;BME280;48812;51.606;-0.114;2023-03-30T06:50:14;99714.16;;;16.96;62.45
56504;BME280;48812;51.606;-0.114;2023-03-30T06:53:06;99713.09;;;16.99;61.96
56504;BME280;48812;51.606;-0.114;2023-03-30T06:55:50;99715.66;;;17.00;62.33
56504;BME280;48812;51.606;-0.114;2023-03-30T06:58:26;99712.06;;;17.01;62.08
56504;BME280;48812;51.606;-0.114;2023-03-30T07:01:13;99713.66;;;17.04;62.47
56504;BME280;48812;51.606;-0.114;2023-03-30T07:03:51;99709.19;;;17.04;61.75
56504;BME280;48812;51.606;-0.114;2023-03-30T07:06:30;99717.09;;;17.06;62.15
56504;BME280;48812;51.606;-0.114;2023-03-30T07:09:03;99719.66;;;17.07;61.82
56504;BME280;48812;51.606;-0.114;2023-03-30T07:11:36;99720.72;;;17.05;62.24
56504;BME280;48812;51.606;-0.114;2023-03-30T07:14:09;99734.75;;;17.08;62.13
56504;BME280;48812;51.606;-0.114;2023-03-30T07:16:43;99733.81;;;17.09;61.79
56504;BME280;48812;51.606;-0.114;2023-03-30T07:19:16;99729.31;;;17.10;61.97
56504;BME280;48812;51.606;-0.114;2023-03-30T07:21:50;99736.38;;;17.11;62.23
56504;BME280;48812;51.606;-0.114;2023-03-30T07:24:27;99725.69;;;17.11;62.02
56504;BME280;48812;51.606;-0.114;2023-03-30T07:27:02;99736.28;;;17.12;61.66
56504;BME280;48812;51.606;-0.114;2023-03-30T07:29:35;99727.41;;;17.12;61.90
56504;BME280;48812;51.606;-0.114;2023-03-30T07:32:08;99737.13;;;17.13;62.11
56504;BME280;48812;51.606;-0.114;2023-03-30T07:34:40;99738.00;;;17.13;62.07
56504;BME280;48812;51.606;-0.114;2023-03-30T07:37:12;99738.84;;;17.14;61.69
56504;BME280;48812;51.606;-0.114;2023-03-30T07:39:52;99741.50;;;17.14;62.39
56504;BME280;48812;51.606;-0.114;2023-03-30T07:42:25;99740.00;;;17.10;61.85
56504;BME280;48812;51.606;-0.114;2023-03-30T07:44:57;99743.25;;;17.15;61.81
56504;BME280;48812;51.606;-0.114;2023-03-30T07:47:31;99742.38;;;17.14;61.89
56504;BME280;48812;51.606;-0.114;2023-03-30T07:50:03;99745.06;;;17.14;61.71
56504;BME280;48812;51.606;-0.114;2023-03-30T07:52:38;99742.38;;;17.14;61.55
56504;BME280;48812;51.606;-0.114;2023-03-30T07:55:11;99756.59;;;17.15;61.74
56504;BME280;48812;51.606;-0.114;2023-03-30T07:57:55;99759.25;;;17.15;61.50
56504;BME280;48812;51.606;-0.114;2023-03-30T08:00:28;99755.75;;;17.14;61.71
56504;BME280;48812;51.606;-0.114;2023-03-30T08:03:28;99773.56;;;17.14;61.92
56504;BME280;48812;51.606;-0.114;2023-03-30T08:06:02;99762.88;;;17.14;61.64
56504;BME280;48812;51.606;-0.114;2023-03-30T08:08:42;99761.19;;;17.13;61.41
56504;BME280;48812;51.606;-0.114;2023-03-30T08:11:16;99766.53;;;17.13;61.43
56504;BME280;48812;51.606;-0.114;2023-03-30T08:13:48;99765.75;;;17.11;61.10
56504;BME280;48812;51.606;-0.114;2023-03-30T08:16:21;99777.19;;;17.13;61.49
56504;BME280;48812;51.606;-0.114;2023-03-30T08:18:54;99781.69;;;17.12;61.07
56504;BME280;48812;51.606;-0.114;2023-03-30T08:21:27;99777.19;;;17.13;61.40
56504;BME280;48812;51.606;-0.114;2023-03-30T08:23:59;99771.88;;;17.13;61.18
56504;BME280;48812;51.606;-0.114;2023-03-30T08:26:32;99779.13;;;17.11;61.21
56504;BME280;48812;51.606;-0.114;2023-03-30T08:29:04;99778.22;;;17.10;61.33
56504;BME280;48812;51.606;-0.114;2023-03-30T08:31:38;99786.16;;;17.12;61.06
56504;BME280;48812;51.606;-0.114;2023-03-30T08:34:10;99797.81;;;17.11;61.34
56504;BME280;48812;51.606;-0.114;2023-03-30T08:36:43;99791.59;;;17.10;60.81
56504;BME280;48812;51.606;-0.114;2023-03-30T08:39:15;99789.88;;;17.09;60.88
56504;BME280;48812;51.606;-0.114;2023-03-30T08:44:38;99796.00;;;17.11;60.83
56504;BME280;48812;51.606;-0.114;2023-03-30T08:47:13;99797.91;;;17.09;60.59
56504;BME280;48812;51.606;-0.114;2023-03-30T08:50:20;99796.75;;;17.13;61.11
56504;BME280;48812;51.606;-0.114;2023-03-30T08:52:56;99804.84;;;17.12;60.99
56504;BME280;48812;51.606;-0.114;2023-03-30T08:58:39;99807.34;;;17.15;60.58
56504;BME280;48812;51.606;-0.114;2023-03-30T09:09:20;99797.50;;;17.15;60.84
56504;BME280;48812;51.606;-0.114;2023-03-30T09:15:05;99805.44;;;17.17;60.37
56504;BME280;48812;51.606;-0.114;2023-03-30T09:20:21;99803.63;;;17.18;60.18
56504;BME280;48812;51.606;-0.114;2023-03-30T09:22:57;99810.78;;;17.17;60.15
56504;BME280;48812;51.606;-0.114;2023-03-30T09:28:23;99818.78;;;17.17;60.04
56504;BME280;48812;51.606;-0.114;2023-03-30T09:33:57;99810.78;;;17.17;60.34
56504;BME280;48812;51.606;-0.114;2023-03-30T09:39:30;99809.81;;;17.18;60.28
56504;BME280;48812;51.606;-0.114;2023-03-30T09:45:00;99811.66;;;17.18;60.34
56504;BME280;48812;51.606;-0.114;2023-03-30T09:47:38;99817.84;;;17.18;60.17
56504;BME280;48812;51.606;-0.114;2023-03-30T09:50:21;99807.16;;;17.18;59.44
56504;BME280;48812;51.606;-0.114;2023-03-30T09:53:04;99815.16;;;17.18;60.26
56504;BME280;48812;51.606;-0.114;2023-03-30T09:55:39;99817.75;;;17.20;59.94
56504;BME280;48812;51.606;-0.114;2023-03-30T09:58:25;99817.66;;;17.21;59.53
56504;BME280;48812;51.606;-0.114;2023-03-30T10:03:38;99804.22;;;17.23;60.07
56504;BME280;48812;51.606;-0.114;2023-03-30T10:06:16;99812.22;;;17.23;60.00
56504;BME280;48812;51.606;-0.114;2023-03-30T10:08:54;99827.13;;;17.27;59.89
56504;BME280;48812;51.606;-0.114;2023-03-30T10:11:50;99813.69;;;17.28;59.39
56504;BME280;48812;51.606;-0.114;2023-03-30T10:14:33;99816.34;;;17.28;59.66
56504;BME280;48812;51.606;-0.114;2023-03-30T10:17:17;99810.91;;;17.30;59.69
56504;BME280;48812;51.606;-0.114;2023-03-30T10:19:52;99821.50;;;17.31;59.87
56504;BME280;48812;51.606;-0.114;2023-03-30T10:22:51;99815.22;;;17.32;59.81
56504;BME280;48812;51.606;-0.114;2023-03-30T10:25:28;99814.25;;;17.33;59.65
56504;BME280;48812;51.606;-0.114;2023-03-30T10:28:03;99811.59;;;17.33;59.70
56504;BME280;48812;51.606;-0.114;2023-03-30T10:30:37;99822.25;;;17.33;59.57
56504;BME280;48812;51.606;-0.114;2023-03-30T10:33:10;99818.66;;;17.35;59.66
56504;BME280;48812;51.606;-0.114;2023-03-30T10:35:46;99826.47;;;17.38;59.93
56504;BME280;48812;51.606;-0.114;2023-03-30T10:38:22;99836.19;;;17.39;59.75
56504;BME280;48812;51.606;-0.114;2023-03-30T10:41:00;99825.41;;;17.40;59.93
56504;BME280;48812;51.606;-0.114;2023-03-30T10:43:34;99813.13;;;17.38;59.14
56504;BME280;48812;51.606;-0.114;2023-03-30T10:46:14;99830.66;;;17.42;59.20
56504;BME280;48812;51.606;-0.114;2023-03-30T10:52:07;99828.88;;;17.42;59.81
56504;BME280;48812;51.606;-0.114;2023-03-30T10:57:49;99826.03;;;17.45;59.40
56504;BME280;48812;51.606;-0.114;2023-03-30T11:05:33;99844.59;;;17.47;58.82
56504;BME280;48812;51.606;-0.114;2023-03-30T11:08:13;99837.56;;;17.46;59.58
56504;BME280;48812;51.606;-0.114;2023-03-30T11:10:52;99830.47;;;17.45;58.88
56504;BME280;48812;51.606;-0.114;2023-03-30T11:13:32;99835.81;;;17.45;59.28
56504;BME280;48812;51.606;-0.114;2023-03-30T11:16:24;99823.44;;;17.44;59.14
56504;BME280;48812;51.606;-0.114;2023-03-30T11:19:02;99816.38;;;17.43;58.75
56504;BME280;48812;51.606;-0.114;2023-03-30T11:21:49;99827.06;;;17.43;59.53
56504;BME280;48812;51.606;-0.114;2023-03-30T11:24:28;99815.53;;;17.42;59.21
56504;BME280;48812;51.606;-0.114;2023-03-30T11:27:12;99810.09;;;17.44;59.52
56504;BME280;48812;51.606;-0.114;2023-03-30T11:29:52;99807.41;;;17.44;58.99
56504;BME280;48812;51.606;-0.114;2023-03-30T11:32:32;99812.75;;;17.44;59.18
56504;BME280;48812;51.606;-0.114;2023-03-30T11:35:30;99818.94;;;17.44;58.81
56504;BME280;48812;51.606;-0.114;2023-03-30T11:38:12;99833.91;;;17.47;59.12
56504;BME280;48812;51.606;-0.114;2023-03-30T11:40:52;99827.53;;;17.49;59.19
56504;BME280;48812;51.606;-0.114;2023-03-30T11:43:30;99814.06;;;17.51;58.71
56504;BME280;48812;51.606;-0.114;2023-03-30T11:46:15;99825.53;;;17.53;58.54
56504;BME280;48812;51.606;-0.114;2023-03-30T12:03:43;99833.91;;;17.61;59.15
56504;BME280;48812;51.606;-0.114;2023-03-30T12:06:30;99820.56;;;17.61;58.34
56504;BME280;48812;51.606;-0.114;2023-03-30T12:23:37;99817.69;;;17.50;59.21
56504;BME280;48812;51.606;-0.114;2023-03-30T12:26:28;99819.59;;;17.48;59.22
56504;BME280;48812;51.606;-0.114;2023-03-30T12:34:36;99836.72;;;17.45;58.89
56504;BME280;48812;51.606;-0.114;2023-03-30T12:37:31;99814.25;;;17.48;58.90
56504;BME280;48812;51.606;-0.114;2023-03-30T12:40:16;99822.19;;;17.49;58.70
56504;BME280;48812;51.606;-0.114;2023-03-30T12:43:00;99815.81;;;17.52;59.02
56504;BME280;48812;51.606;-0.114;2023-03-30T12:46:01;99810.38;;;17.54;58.85
56504;BME280;48812;51.606;-0.114;2023-03-30T12:48:55;99811.13;;;17.56;58.64
56504;BME280;48812;51.606;-0.114;2023-03-30T12:51:56;99809.28;;;17.56;58.63
56504;BME280;48812;51.606;-0.114;2023-03-30T13:03:27;99784.22;;;17.59;59.11
56504;BME280;48812;51.606;-0.114;2023-03-30T13:06:21;99775.22;;;17.60;58.51
56504;BME280;48812;51.606;-0.114;2023-03-30T13:14:38;99774.16;;;17.62;59.12
56504;BME280;48812;51.606;-0.114;2023-03-30T13:17:16;99775.03;;;17.63;58.57
56504;BME280;48812;51.606;-0.114;2023-03-30T13:23:24;99783.03;;;17.77;58.21
56504;BME280;48812;51.606;-0.114;2023-03-30T13:31:45;99765.53;;;17.86;58.15
56504;BME280;48812;51.606;-0.114;2023-03-30T13:37:17;99765.13;;;17.92;57.63
56504;BME280;48812;51.606;-0.114;2023-03-30T13:40:06;99769.63;;;17.92;57.96
56504;BME280;48812;51.606;-0.114;2023-03-30T13:45:57;99773.34;;;17.89;57.49
56504;BME280;48812;51.606;-0.114;2023-03-30T13:51:29;99773.75;;;17.83;57.57
56504;BME280;48812;51.606;-0.114;2023-03-30T13:54:15;99776.41;;;17.83;57.57
56504;BME280;48812;51.606;-0.114;2023-03-30T13:56:55;99787.91;;;17.85;57.64
56504;BME280;48812;51.606;-0.114;2023-03-30T13:59:31;99781.38;;;17.89;57.99
56504;BME280;48812;51.606;-0.114;2023-03-30T14:02:04;99778.31;;;17.95;57.76
56504;BME280;48812;51.606;-0.114;2023-03-30T14:04:37;99771.19;;;18.09;58.05
56504;BME280;48812;51.606;-0.114;2023-03-30T14:07:18;99778.75;;;18.29;57.76
56504;BME280;48812;51.606;-0.114;2023-03-30T14:10:15;99783.28;;;18.56;57.00
56504;BME280;48812;51.606;-0.114;2023-03-30T14:12:58;99769.59;;;18.73;56.84
56504;BME280;48812;51.606;-0.114;2023-03-30T14:15:36;99777.75;;;18.85;56.07
56504;BME280;48812;51.606;-0.114;2023-03-30T14:18:12;99782.16;;;18.86;56.56
56504;BME280;48812;51.606;-0.114;2023-03-30T14:21:13;99776.81;;;18.86;56.39
56504;BME280;48812;51.606;-0.114;2023-03-30T14:23:54;99784.84;;;18.86;55.91
56504;BME280;48812;51.606;-0.114;2023-03-30T14:26:28;99772.41;;;18.85;55.68
56504;BME280;48812;51.606;-0.114;2023-03-30T14:29:09;99777.03;;;18.95;55.20
56504;BME280;48812;51.606;-0.114;2023-03-30T14:32:01;99770.91;;;19.32;54.81
56504;BME280;48812;51.606;-0.114;2023-03-30T14:34:37;99754.28;;;19.52;54.42
56504;BME280;48812;51.606;-0.114;2023-03-30T14:37:09;99762.88;;;19.58;54.17
56504;BME280;48812;51.606;-0.114;2023-03-30T14:39:48;99757.81;;;19.66;53.99
56504;BME280;48812;51.606;-0.114;2023-03-30T14:42:29;99752.50;;;19.77;53.55
56504;BME280;48812;51.606;-0.114;2023-03-30T14:45:02;99752.88;;;19.73;53.57
56504;BME280;48812;51.606;-0.114;2023-03-30T14:47:35;99753.63;;;19.62;53.97
56504;BME280;48812;51.606;-0.114;2023-03-30T14:50:09;99757.94;;;19.51;53.38
56504;BME280;48812;51.606;-0.114;2023-03-30T14:52:45;99766.72;;;19.53;53.87
56504;BME280;48812;51.606;-0.114;2023-03-30T14:55:23;99751.47;;;19.67;53.73
56504;BME280;48812;51.606;-0.114;2023-03-30T14:57:56;99763.50;;;19.74;53.52
56504;BME280;48812;51.606;-0.114;2023-03-30T15:00:30;99743.22;;;19.70;53.11
56504;BME280;48812;51.606;-0.114;2023-03-30T15:03:03;99749.22;;;19.61;53.45
56504;BME280;48812;51.606;-0.114;2023-03-30T15:05:37;99750.66;;;19.53;53.17
56504;BME280;48812;51.606;-0.114;2023-03-30T15:08:23;99744.03;;;19.46;52.95
56504;BME280;48812;51.606;-0.114;2023-03-30T15:11:00;99735.84;;;19.35;53.55
56504;BME280;48812;51.606;-0.114;2023-03-30T15:13:42;99738.44;;;19.24;53.69
56504;BME280;48812;51.606;-0.114;2023-03-30T15:16:19;99745.94;;;19.19;53.61
56504;BME280;48812;51.606;-0.114;2023-03-30T15:19:10;99743.69;;;19.12;54.42
56504;BME280;48812;51.606;-0.114;2023-03-30T15:21:43;99747.88;;;19.16;54.06
56504;BME280;48812;51.606;-0.114;2023-03-30T15:24:21;99733.94;;;19.24;53.87
56504;BME280;48812;51.606;-0.114;2023-03-30T15:26:55;99749.91;;;19.26;54.22
56504;BME280;48812;51.606;-0.114;2023-03-30T15:29:30;99758.16;;;19.23;54.05
56504;BME280;48812;51.606;-0.114;2023-03-30T15:32:20;99739.84;;;19.16;53.93
56504;BME280;48812;51.606;-0.114;2023-03-30T15:38:01;99742.97;;;19.10;53.90
56504;BME280;48812;51.606;-0.114;2023-03-30T15:40:35;99744.22;;;19.17;53.89
56504;BME280;48812;51.606;-0.114;2023-03-30T15:43:24;99747.53;;;19.34;53.81
56504;BME280;48812;51.606;-0.114;2023-03-30T15:46:04;99747.97;;;19.41;53.86
56504;BME280;48812;51.606;-0.114;2023-03-30T15:48:46;99745.31;;;19.41;53.74
56504;BME280;48812;51.606;-0.114;2023-03-30T15:51:20;99736.53;;;19.39;53.88
56504;BME280;48812;51.606;-0.114;2023-03-30T15:54:18;99730.50;;;19.35;54.03
56504;BME280;48812;51.606;-0.114;2023-03-30T15:57:04;99741.66;;;19.29;53.67
56504;BME280;48812;51.606;-0.114;2023-03-30T16:00:09;99746.69;;;19.21;53.48
56504;BME280;48812;51.606;-0.114;2023-03-30T16:02:59;99737.28;;;19.15;54.25
56504;BME280;48812;51.606;-0.114;2023-03-30T16:05:32;99729.66;;;19.09;54.04
56504;BME280;48812;51.606;-0.114;2023-03-30T16:08:05;99726.88;;;19.10;54.10
56504;BME280;48812;51.606;-0.114;2023-03-30T16:10:38;99720.41;;;19.26;54.43
56504;BME280;48812;51.606;-0.114;2023-03-30T16:13:10;99713.13;;;19.41;54.02
56504;BME280;48812;51.606;-0.114;2023-03-30T16:15:43;99705.59;;;19.59;53.32
56504;BME280;48812;51.606;-0.114;2023-03-30T16:18:16;99722.69;;;19.82;53.27
56504;BME280;48812;51.606;-0.114;2023-03-30T16:20:48;99708.53;;;20.04;53.34
56504;BME280;48812;51.606;-0.114;2023-03-30T16:23:21;99713.59;;;20.20;52.63
56504;BME280;48812;51.606;-0.114;2023-03-30T16:25:55;99701.91;;;20.21;52.62
56504;BME280;48812;51.606;-0.114;2023-03-30T16:28:29;99715.88;;;20.13;52.72
56504;BME280;48812;51.606;-0.114;2023-03-30T16:31:06;99719.38;;;20.02;52.05